sensor_id;sensor_type;location;lat;lon;timestamp;P1;durP1;ratioP1;P2;durP2;ratioP2
59685;SDS011;45554;51.096;16.976;2022-09-09T00:02:02;9.70;;;5.20;;
59685;SDS011;45554;51.096;16.976;2022-09-09T00:15:20;7.40;;;4.50;;
59685;SDS011;45554;51.096;16.976;2022-09-09T00:19:24;9.60;;;4.40;;
59685;SDS011;45554;51.096;16.976;2022-09-09T00:22:21;7.20;;;5.00;;
59685;SDS011;45554;51.096;16.976;2022-09-09T00:32:12;5.40;;;3.90;;
59685;SDS011;45554;51.096;16.976;2022-09-09T00:35:25;5.50;;;3.80;;
59685;SDS011;45554;51.096;16.976;2022-09-09T00:38:39;6.60;;;3.90;;
59685;SDS011;45554;51.096;16.976;2022-09-09T00:42:14;6.80;;;3.30;;
59685;SDS011;45554;51.096;16.976;2022-09-09T00:49:27;5.30;;;3.80;;
59685;SDS011;45554;51.096;16.976;2022-09-09T01:00:23;6.40;;;4.00;;
59685;SDS011;45554;51.096;16.976;2022-09-09T01:03:37;5.70;;;3.70;;
59685;SDS011;45554;51.096;16.976;2022-09-09T01:06:57;5.30;;;3.90;;
59685;SDS011;45554;51.096;16.976;2022-09-09T01:10:37;6.70;;;3.80;;
59685;SDS011;45554;51.096;16.976;2022-09-09T01:14:01;7.30;;;3.50;;
59685;SDS011;45554;51.096;16.976;2022-09-09T01:18:10;5.40;;;3.60;;
59685;SDS011;45554;51.096;16.976;2022-09-09T01:21:31;5.60;;;3.70;;
59685;SDS011;45554;51.096;16.976;2022-09-09T01:29:44;5.70;;;3.80;;
59685;SDS011;45554;51.096;16.976;2022-09-09T01:33:38;5.60;;;3.70;;
59685;SDS011;45554;51.096;16.976;2022-09-09T01:37:39;5.90;;;3.70;;
59685;SDS011;45554;51.096;16.976;2022-09-09T01:41:03;5.70;;;3.60;;
59685;SDS011;45554;51.096;16.976;2022-09-09T01:44:23;6.00;;;3.80;;
59685;SDS011;45554;51.096;16.976;2022-09-09T01:48:09;5.40;;;3.80;;
59685;SDS011;45554;51.096;16.976;2022-09-09T01:51:32;6.20;;;3.60;;
59685;SDS011;45554;51.096;16.976;2022-09-09T01:56:05;6.00;;;4.30;;
59685;SDS011;45554;51.096;16.976;2022-09-09T02:00:33;6.30;;;4.10;;
59685;SDS011;45554;51.096;16.976;2022-09-09T02:08:23;7.80;;;4.00;;
59685;SDS011;45554;51.096;16.976;2022-09-09T02:11:51;6.10;;;4.30;;
59685;SDS011;45554;51.096;16.976;2022-09-09T02:15:31;5.70;;;4.20;;
59685;SDS011;45554;51.096;16.976;2022-09-09T02:18:40;7.30;;;4.10;;
59685;SDS011;45554;51.096;16.976;2022-09-09T02:22:04;6.80;;;4.70;;
59685;SDS011;45554;51.096;16.976;2022-09-09T02:25:09;6.50;;;4.20;;
59685;SDS011;45554;51.096;16.976;2022-09-09T02:28:43;7.70;;;4.70;;
59685;SDS011;45554;51.096;16.976;2022-09-09T02:32:08;5.80;;;4.70;;
59685;SDS011;45554;51.096;16.976;2022-09-09T02:36:08;5.10;;;4.20;;
59685;SDS011;45554;51.096;16.976;2022-09-09T02:39:54;5.80;;;4.70;;
59685;SDS011;45554;51.096;16.976;2022-09-09T02:43:13;5.90;;;4.80;;
59685;SDS011;45554;51.096;16.976;2022-09-09T02:50:40;7.30;;;5.00;;
59685;SDS011;45554;51.096;16.976;2022-09-09T02:54:18;6.60;;;4.50;;
59685;SDS011;45554;51.096;16.976;2022-09-09T02:57:52;7.30;;;4.30;;
59685;SDS011;45554;51.096;16.976;2022-09-09T03:01:20;7.00;;;4.50;;
59685;SDS011;45554;51.096;16.976;2022-09-09T03:04:21;7.30;;;4.90;;
59685;SDS011;45554;51.096;16.976;2022-09-09T03:07:34;6.80;;;4.70;;
59685;SDS011;45554;51.096;16.976;2022-09-09T03:10:31;6.90;;;5.40;;
59685;SDS011;45554;51.096;16.976;2022-09-09T03:13:52;7.10;;;5.50;;
59685;SDS011;45554;51.096;16.976;2022-09-09T03:17:02;7.80;;;5.70;;
59685;SDS011;45554;51.096;16.976;2022-09-09T03:20:26;6.60;;;5.10;;
59685;SDS011;45554;51.096;16.976;2022-09-09T03:23:23;6.90;;;5.00;;
59685;SDS011;45554;51.096;16.976;2022-09-09T03:26:25;9.80;;;5.70;;
59685;SDS011;45554;51.096;16.976;2022-09-09T03:29:55;6.60;;;5.30;;
59685;SDS011;45554;51.096;16.976;2022-09-09T03:33:06;8.00;;;5.60;;
59685;SDS011;45554;51.096;16.976;2022-09-09T03:36:30;8.90;;;5.10;;
59685;SDS011;45554;51.096;16.976;2022-09-09T03:39:35;10.90;;;5.80;;
59685;SDS011;45554;51.096;16.976;2022-09-09T03:42:29;7.90;;;5.60;;
59685;SDS011;45554;51.096;16.976;2022-09-09T03:45:40;6.80;;;5.40;;
59685;SDS011;45554;51.096;16.976;2022-09-09T03:48:12;7.10;;;5.10;;
59685;SDS011;45554;51.096;16.976;2022-09-09T03:51:27;8.70;;;4.80;;
59685;SDS011;45554;51.096;16.976;2022-09-09T03:54:17;5.00;;;4.20;;
59685;SDS011;45554;51.096;16.976;2022-09-09T03:59:57;8.00;;;4.90;;
59685;SDS011;45554;51.096;16.976;2022-09-09T04:03:20;6.90;;;4.80;;
59685;SDS011;45554;51.096;16.976;2022-09-09T04:06:37;8.00;;;4.60;;
59685;SDS011;45554;51.096;16.976;2022-09-09T04:09:25;6.50;;;4.30;;
59685;SDS011;45554;51.096;16.976;2022-09-09T04:12:36;5.70;;;4.00;;
59685;SDS011;45554;51.096;16.976;2022-09-09T04:15:17;7.00;;;4.30;;
59685;SDS011;45554;51.096;16.976;2022-09-09T04:18:06;8.70;;;4.30;;
59685;SDS011;45554;51.096;16.976;2022-09-09T04:20:49;6.30;;;4.80;;
59685;SDS011;45554;51.096;16.976;2022-09-09T04:23:33;10.40;;;5.10;;
59685;SDS011;45554;51.096;16.976;2022-09-09T04:26:23;6.80;;;4.90;;
59685;SDS011;45554;51.096;16.976;2022-09-09T04:29:21;8.80;;;5.40;;
59685;SDS011;45554;51.096;16.976;2022-09-09T04:32:23;7.40;;;5.00;;
59685;SDS011;45554;51.096;16.976;2022-09-09T04:35:06;9.90;;;4.50;;
59685;SDS011;45554;51.096;16.976;2022-09-09T04:38:18;9.80;;;5.30;;
59685;SDS011;45554;51.096;16.976;2022-09-09T04:41:05;19.00;;;7.90;;
59685;SDS011;45554;51.096;16.976;2022-09-09T04:43:59;12.10;;;6.70;;
59685;SDS011;45554;51.096;16.976;2022-09-09T04:46:41;11.30;;;6.70;;
59685;SDS011;45554;51.096;16.976;2022-09-09T04:49:18;7.20;;;5.10;;
59685;SDS011;45554;51.096;16.976;2022-09-09T04:52:10;7.90;;;4.80;;
59685;SDS011;45554;51.096;16.976;2022-09-09T04:55:32;6.80;;;4.60;;
59685;SDS011;45554;51.096;16.976;2022-09-09T04:58:47;6.50;;;4.50;;
59685;SDS011;45554;51.096;16.976;2022-09-09T05:02:03;8.90;;;4.70;;
59685;SDS011;45554;51.096;16.976;2022-09-09T05:04:39;6.40;;;4.10;;
59685;SDS011;45554;51.096;16.976;2022-09-09T05:10:12;6.40;;;4.10;;
59685;SDS011;45554;51.096;16.976;2022-09-09T05:12:52;6.10;;;4.50;;
59685;SDS011;45554;51.096;16.976;2022-09-09T05:15:31;6.80;;;4.50;;
59685;SDS011;45554;51.096;16.976;2022-09-09T05:18:23;8.70;;;4.90;;
59685;SDS011;45554;51.096;16.976;2022-09-09T05:21:00;8.80;;;4.60;;
59685;SDS011;45554;51.096;16.976;2022-09-09T05:24:03;6.10;;;4.40;;
59685;SDS011;45554;51.096;16.976;2022-09-09T05:26:46;6.00;;;4.10;;
59685;SDS011;45554;51.096;16.976;2022-09-09T05:29:38;8.60;;;5.20;;
59685;SDS011;45554;51.096;16.976;2022-09-09T05:32:18;7.10;;;4.50;;
59685;SDS011;45554;51.096;16.976;2022-09-09T05:35:16;5.70;;;4.30;;
59685;SDS011;45554;51.096;16.976;2022-09-09T05:38:01;7.30;;;4.60;;
59685;SDS011;45554;51.096;16.976;2022-09-09T05:40:47;7.50;;;4.30;;
59685;SDS011;45554;51.096;16.976;2022-09-09T05:43:42;5.80;;;4.10;;
59685;SDS011;45554;51.096;16.976;2022-09-09T05:46:31;6.80;;;4.60;;
59685;SDS011;45554;51.096;16.976;2022-09-09T05:49:03;6.90;;;4.40;;
59685;SDS011;45554;51.096;16.976;2022-09-09T05:51:58;7.30;;;4.50;;
59685;SDS011;45554;51.096;16.976;2022-09-09T05:54:30;5.60;;;4.30;;
59685;SDS011;45554;51.096;16.976;2022-09-09T05:57:08;7.80;;;5.20;;
59685;SDS011;45554;51.096;16.976;2022-09-09T05:59:38;8.30;;;5.10;;
59685;SDS011;45554;51.096;16.976;2022-09-09T06:02:08;6.50;;;4.60;;
59685;SDS011;45554;51.096;16.976;2022-09-09T06:04:39;7.70;;;4.70;;
59685;SDS011;45554;51.096;16.976;2022-09-09T06:07:12;7.50;;;4.80;;
59685;SDS011;45554;51.096;16.976;2022-09-09T06:09:41;8.10;;;5.20;;
59685;SDS011;45554;51.096;16.976;2022-09-09T06:12:15;7.80;;;5.00;;
59685;SDS011;45554;51.096;16.976;2022-09-09T06:14:53;5.90;;;4.50;;
59685;SDS011;45554;51.096;16.976;2022-09-09T06:17:37;7.70;;;5.00;;
59685;SDS011;45554;51.096;16.976;2022-09-09T06:20:15;6.00;;;4.50;;
59685;SDS011;45554;51.096;16.976;2022-09-09T06:22:52;7.40;;;4.40;;
59685;SDS011;45554;51.096;16.976;2022-09-09T06:28:11;6.00;;;4.00;;
59685;SDS011;45554;51.096;16.976;2022-09-09T06:30:58;7.80;;;5.00;;
59685;SDS011;45554;51.096;16.976;2022-09-09T06:33:39;7.30;;;5.20;;
59685;SDS011;45554;51.096;16.976;2022-09-09T06:36:14;7.90;;;4.60;;
59685;SDS011;45554;51.096;16.976;2022-09-09T06:38:57;7.40;;;3.90;;
59685;SDS011;45554;51.096;16.976;2022-09-09T06:41:29;6.20;;;3.90;;
59685;SDS011;45554;51.096;16.976;2022-09-09T06:45:02;4.70;;;2.90;;
59685;SDS011;45554;51.096;16.976;2022-09-09T06:47:51;7.20;;;3.50;;
59685;SDS011;45554;51.096;16.976;2022-09-09T06:50:27;6.40;;;3.50;;
59685;SDS011;45554;51.096;16.976;2022-09-09T06:53:06;5.60;;;3.20;;
59685;SDS011;45554;51.096;16.976;2022-09-09T06:59:20;5.00;;;2.10;;
59685;SDS011;45554;51.096;16.976;2022-09-09T07:01:54;4.20;;;2.40;;
59685;SDS011;45554;51.096;16.976;2022-09-09T07:04:27;4.40;;;2.30;;
59685;SDS011;45554;51.096;16.976;2022-09-09T07:07:01;5.10;;;2.20;;
59685;SDS011;45554;51.096;16.976;2022-09-09T07:09:36;4.70;;;2.00;;
59685;SDS011;45554;51.096;16.976;2022-09-09T07:12:24;4.90;;;2.00;;
59685;SDS011;45554;51.096;16.976;2022-09-09T07:15:01;3.40;;;2.00;;
59685;SDS011;45554;51.096;16.976;2022-09-09T07:17:45;6.20;;;2.00;;
59685;SDS011;45554;51.096;16.976;2022-09-09T07:21:10;3.80;;;1.80;;
59685;SDS011;45554;51.096;16.976;2022-09-09T07:24:04;3.40;;;2.00;;
59685;SDS011;45554;51.096;16.976;2022-09-09T07:26:48;4.80;;;1.50;;
59685;SDS011;45554;51.096;16.976;2022-09-09T07:29:56;3.70;;;1.50;;
59685;SDS011;45554;51.096;16.976;2022-09-09T07:32:57;3.10;;;1.50;;
59685;SDS011;45554;51.096;16.976;2022-09-09T07:35:29;3.80;;;1.60;;
59685;SDS011;45554;51.096;16.976;2022-09-09T07:38:19;4.00;;;1.60;;
59685;SDS011;45554;51.096;16.976;2022-09-09T07:40:53;4.80;;;1.40;;
59685;SDS011;45554;51.096;16.976;2022-09-09T07:44:05;7.40;;;1.80;;
59685;SDS011;45554;51.096;16.976;2022-09-09T07:47:41;2.70;;;1.50;;
59685;SDS011;45554;51.096;16.976;2022-09-09T07:50:41;1.50;;;1.30;;
59685;SDS011;45554;51.096;16.976;2022-09-09T07:53:33;4.80;;;1.60;;
59685;SDS011;45554;51.096;16.976;2022-09-09T07:56:15;4.00;;;1.50;;
59685;SDS011;45554;51.096;16.976;2022-09-09T07:58:46;3.60;;;1.60;;
59685;SDS011;45554;51.096;16.976;2022-09-09T08:03:59;2.00;;;1.40;;
59685;SDS011;45554;51.096;16.976;2022-09-09T08:06:31;4.40;;;1.50;;
59685;SDS011;45554;51.096;16.976;2022-09-09T08:09:06;5.90;;;1.80;;
59685;SDS011;45554;51.096;16.976;2022-09-09T08:11:39;4.20;;;1.30;;
59685;SDS011;45554;51.096;16.976;2022-09-09T08:14:13;3.10;;;1.40;;
59685;SDS011;45554;51.096;16.976;2022-09-09T08:16:58;2.30;;;1.40;;
59685;SDS011;45554;51.096;16.976;2022-09-09T08:19:35;4.90;;;1.40;;
59685;SDS011;45554;51.096;16.976;2022-09-09T08:22:55;3.50;;;1.40;;
59685;SDS011;45554;51.096;16.976;2022-09-09T08:26:12;1.90;;;1.40;;
59685;SDS011;45554;51.096;16.976;2022-09-09T08:29:31;2.60;;;1.40;;
59685;SDS011;45554;51.096;16.976;2022-09-09T08:32:40;4.40;;;1.40;;
59685;SDS011;45554;51.096;16.976;2022-09-09T08:35:29;3.40;;;1.30;;
59685;SDS011;45554;51.096;16.976;2022-09-09T08:38:33;4.60;;;1.40;;
59685;SDS011;45554;51.096;16.976;2022-09-09T08:44:29;3.80;;;1.10;;
59685;SDS011;45554;51.096;16.976;2022-09-09T08:50:43;4.10;;;1.10;;
59685;SDS011;45554;51.096;16.976;2022-09-09T08:53:27;3.70;;;1.20;;
59685;SDS011;45554;51.096;16.976;2022-09-09T08:56:38;2.20;;;1.00;;
59685;SDS011;45554;51.096;16.976;2022-09-09T08:59:16;3.20;;;1.20;;
59685;SDS011;45554;51.096;16.976;2022-09-09T09:04:54;3.30;;;1.40;;
59685;SDS011;45554;51.096;16.976;2022-09-09T09:13:13;3.40;;;1.00;;
59685;SDS011;45554;51.096;16.976;2022-09-09T09:16:23;3.50;;;1.10;;
59685;SDS011;45554;51.096;16.976;2022-09-09T09:19:13;3.60;;;1.20;;
59685;SDS011;45554;51.096;16.976;2022-09-09T09:21:52;6.40;;;1.60;;
59685;SDS011;45554;51.096;16.976;2022-09-09T09:27:31;3.60;;;1.40;;
59685;SDS011;45554;51.096;16.976;2022-09-09T09:30:20;5.00;;;1.40;;
59685;SDS011;45554;51.096;16.976;2022-09-09T09:33:08;2.60;;;1.10;;
59685;SDS011;45554;51.096;16.976;2022-09-09T09:36:10;2.00;;;1.00;;
59685;SDS011;45554;51.096;16.976;2022-09-09T09:38:51;6.00;;;1.30;;
59685;SDS011;45554;51.096;16.976;2022-09-09T09:41:45;2.50;;;1.10;;
59685;SDS011;45554;51.096;16.976;2022-09-09T09:44:44;4.60;;;1.20;;
59685;SDS011;45554;51.096;16.976;2022-09-09T09:47:24;4.00;;;1.10;;
59685;SDS011;45554;51.096;16.976;2022-09-09T09:50:17;2.70;;;1.10;;
59685;SDS011;45554;51.096;16.976;2022-09-09T09:53:28;3.10;;;1.00;;
59685;SDS011;45554;51.096;16.976;2022-09-09T09:56:55;2.20;;;0.80;;
59685;SDS011;45554;51.096;16.976;2022-09-09T09:59:34;2.00;;;1.00;;
59685;SDS011;45554;51.096;16.976;2022-09-09T10:03:12;2.90;;;1.10;;
59685;SDS011;45554;51.096;16.976;2022-09-09T10:06:34;5.80;;;1.10;;
59685;SDS011;45554;51.096;16.976;2022-09-09T10:16:09;2.30;;;0.90;;
59685;SDS011;45554;51.096;16.976;2022-09-09T10:19:36;2.30;;;0.90;;
59685;SDS011;45554;51.096;16.976;2022-09-09T10:35:29;4.40;;;1.30;;
59685;SDS011;45554;51.096;16.976;2022-09-09T10:42:19;4.70;;;1.60;;
59685;SDS011;45554;51.096;16.976;2022-09-09T10:45:56;3.10;;;1.20;;
59685;SDS011;45554;51.096;16.976;2022-09-09T10:57:20;2.40;;;1.10;;
59685;SDS011;45554;51.096;16.976;2022-09-09T11:00:36;3.90;;;1.40;;
59685;SDS011;45554;51.096;16.976;2022-09-09T11:03:34;3.40;;;1.00;;
59685;SDS011;45554;51.096;16.976;2022-09-09T11:07:38;2.60;;;0.90;;
59685;SDS011;45554;51.096;16.976;2022-09-09T11:10:58;3.10;;;1.00;;
59685;SDS011;45554;51.096;16.976;2022-09-09T11:13:53;1.90;;;1.00;;
59685;SDS011;45554;51.096;16.976;2022-09-09T11:17:42;5.20;;;1.30;;
59685;SDS011;45554;51.096;16.976;2022-09-09T11:21:01;3.90;;;0.90;;
59685;SDS011;45554;51.096;16.976;2022-09-09T11:24:44;2.90;;;0.90;;
59685;SDS011;45554;51.096;16.976;2022-09-09T11:31:05;2.40;;;0.70;;
59685;SDS011;45554;51.096;16.976;2022-09-09T11:37:43;6.30;;;1.00;;
59685;SDS011;45554;51.096;16.976;2022-09-09T11:40:41;6.10;;;0.80;;
59685;SDS011;45554;51.096;16.976;2022-09-09T11:43:57;2.40;;;0.80;;
59685;SDS011;45554;51.096;16.976;2022-09-09T11:53:53;2.20;;;1.00;;
59685;SDS011;45554;51.096;16.976;2022-09-09T11:56:33;4.60;;;1.00;;
59685;SDS011;45554;51.096;16.976;2022-09-09T11:59:19;4.00;;;1.00;;
59685;SDS011;45554;51.096;16.976;2022-09-09T12:02:01;2.10;;;0.90;;
59685;SDS011;45554;51.096;16.976;2022-09-09T12:10:23;3.00;;;1.10;;
59685;SDS011;45554;51.096;16.976;2022-09-09T12:13:20;2.50;;;0.90;;
59685;SDS011;45554;51.096;16.976;2022-09-09T12:16:00;3.30;;;1.00;;
59685;SDS011;45554;51.096;16.976;2022-09-09T12:18:36;3.00;;;1.10;;
59685;SDS011;45554;51.096;16.976;2022-09-09T12:21:18;1.30;;;0.90;;
59685;SDS011;45554;51.096;16.976;2022-09-09T12:24:02;3.30;;;1.20;;
59685;SDS011;45554;51.096;16.976;2022-09-09T12:29:37;3.00;;;1.00;;
59685;SDS011;45554;51.096;16.976;2022-09-09T12:32:20;3.10;;;0.90;;
59685;SDS011;45554;51.096;16.976;2022-09-09T12:35:12;2.00;;;1.00;;
59685;SDS011;45554;51.096;16.976;2022-09-09T12:37:58;1.30;;;0.90;;
59685;SDS011;45554;51.096;16.976;2022-09-09T12:40:32;3.00;;;0.90;;
59685;SDS011;45554;51.096;16.976;2022-09-09T12:43:20;5.30;;;1.10;;
59685;SDS011;45554;51.096;16.976;2022-09-09T12:45:56;3.80;;;1.10;;
59685;SDS011;45554;51.096;16.976;2022-09-09T12:48:38;2.80;;;1.20;;
59685;SDS011;45554;51.096;16.976;2022-09-09T12:51:28;3.50;;;1.10;;
59685;SDS011;45554;51.096;16.976;2022-09-09T12:54:32;2.60;;;0.90;;
59685;SDS011;45554;51.096;16.976;2022-09-09T12:57:08;2.90;;;1.00;;
59685;SDS011;45554;51.096;16.976;2022-09-09T12:59:43;1.50;;;0.90;;
59685;SDS011;45554;51.096;16.976;2022-09-09T13:02:28;2.90;;;1.20;;
59685;SDS011;45554;51.096;16.976;2022-09-09T13:05:14;1.80;;;1.00;;
59685;SDS011;45554;51.096;16.976;2022-09-09T13:07:51;3.30;;;1.10;;
59685;SDS011;45554;51.096;16.976;2022-09-09T13:10:32;3.50;;;1.10;;
59685;SDS011;45554;51.096;16.976;2022-09-09T13:13:27;3.70;;;1.00;;
59685;SDS011;45554;51.096;16.976;2022-09-09T13:16:05;3.40;;;1.00;;
59685;SDS011;45554;51.096;16.976;2022-09-09T13:18:55;2.80;;;0.90;;
59685;SDS011;45554;51.096;16.976;2022-09-09T13:21:40;3.10;;;0.90;;
59685;SDS011;45554;51.096;16.976;2022-09-09T13:24:27;3.20;;;1.00;;
59685;SDS011;45554;51.096;16.976;2022-09-09T13:27:28;4.10;;;0.80;;
59685;SDS011;45554;51.096;16.976;2022-09-09T13:30:36;1.30;;;1.00;;
59685;SDS011;45554;51.096;16.976;2022-09-09T13:36:01;3.60;;;1.20;;
59685;SDS011;45554;51.096;16.976;2022-09-09T13:41:32;2.20;;;0.90;;
59685;SDS011;45554;51.096;16.976;2022-09-09T13:44:28;4.10;;;0.90;;
59685;SDS011;45554;51.096;16.976;2022-09-09T13:49:55;3.60;;;0.90;;
59685;SDS011;45554;51.096;16.976;2022-09-09T13:53:02;1.90;;;0.80;;
59685;SDS011;45554;51.096;16.976;2022-09-09T13:55:31;2.80;;;0.90;;
59685;SDS011;45554;51.096;16.976;2022-09-09T13:59:17;2.20;;;1.00;;
59685;SDS011;45554;51.096;16.976;2022-09-09T14:02:20;1.60;;;1.00;;
59685;SDS011;45554;51.096;16.976;2022-09-09T14:04:54;2.30;;;0.90;;
59685;SDS011;45554;51.096;16.976;2022-09-09T14:07:25;1.80;;;0.90;;
59685;SDS011;45554;51.096;16.976;2022-09-09T14:09:54;3.00;;;0.90;;
59685;SDS011;45554;51.096;16.976;2022-09-09T14:12:26;2.00;;;0.70;;
59685;SDS011;45554;51.096;16.976;2022-09-09T14:14:58;1.90;;;0.70;;
59685;SDS011;45554;51.096;16.976;2022-09-09T14:17:36;1.70;;;0.80;;
59685;SDS011;45554;51.096;16.976;2022-09-09T14:20:05;2.10;;;0.90;;
59685;SDS011;45554;51.096;16.976;2022-09-09T14:22:36;2.00;;;0.90;;
59685;SDS011;45554;51.096;16.976;2022-09-09T14:25:05;2.80;;;0.80;;
59685;SDS011;45554;51.096;16.976;2022-09-09T14:27:38;2.50;;;0.90;;
59685;SDS011;45554;51.096;16.976;2022-09-09T14:30:16;3.10;;;1.00;;
59685;SDS011;45554;51.096;16.976;2022-09-09T14:32:54;2.60;;;0.90;;
59685;SDS011;45554;51.096;16.976;2022-09-09T14:35:31;3.00;;;0.90;;
59685;SDS011;45554;51.096;16.976;2022-09-09T14:38:02;2.20;;;0.80;;
59685;SDS011;45554;51.096;16.976;2022-09-09T14:40:46;2.30;;;1.00;;
59685;SDS011;45554;51.096;16.976;2022-09-09T14:43:20;2.40;;;0.90;;
59685;SDS011;45554;51.096;16.976;2022-09-09T14:46:12;3.80;;;1.10;;
59685;SDS011;45554;51.096;16.976;2022-09-09T14:48:47;3.50;;;1.00;;
59685;SDS011;45554;51.096;16.976;2022-09-09T14:51:22;1.10;;;0.90;;
59685;SDS011;45554;51.096;16.976;2022-09-09T14:53:56;3.20;;;1.20;;
59685;SDS011;45554;51.096;16.976;2022-09-09T14:56:31;3.50;;;0.90;;
59685;SDS011;45554;51.096;16.976;2022-09-09T14:59:22;2.00;;;0.90;;
59685;SDS011;45554;51.096;16.976;2022-09-09T15:01:53;4.00;;;1.20;;
59685;SDS011;45554;51.096;16.976;2022-09-09T15:04:25;2.10;;;1.00;;
59685;SDS011;45554;51.096;16.976;2022-09-09T15:06:56;1.80;;;0.80;;
59685;SDS011;45554;51.096;16.976;2022-09-09T15:09:29;2.40;;;0.90;;
59685;SDS011;45554;51.096;16.976;2022-09-09T15:12:01;2.50;;;1.10;;
59685;SDS011;45554;51.096;16.976;2022-09-09T15:14:30;3.20;;;0.80;;
59685;SDS011;45554;51.096;16.976;2022-09-09T15:16:58;4.40;;;1.20;;
59685;SDS011;45554;51.096;16.976;2022-09-09T15:19:29;1.40;;;1.10;;
59685;SDS011;45554;51.096;16.976;2022-09-09T15:22:00;1.60;;;0.90;;
59685;SDS011;45554;51.096;16.976;2022-09-09T15:24:28;2.30;;;1.20;;
59685;SDS011;45554;51.096;16.976;2022-09-09T15:26:59;2.80;;;1.00;;
59685;SDS011;45554;51.096;16.976;2022-09-09T15:29:31;2.50;;;1.00;;
59685;SDS011;45554;51.096;16.976;2022-09-09T15:32:08;3.60;;;1.10;;
59685;SDS011;45554;51.096;16.976;2022-09-09T15:34:38;3.20;;;0.90;;
59685;SDS011;45554;51.096;16.976;2022-09-09T15:37:09;1.80;;;0.80;;
59685;SDS011;45554;51.096;16.976;2022-09-09T15:39:41;2.70;;;1.20;;
59685;SDS011;45554;51.096;16.976;2022-09-09T15:42:09;2.30;;;1.00;;
59685;SDS011;45554;51.096;16.976;2022-09-09T15:44:40;2.50;;;1.00;;
59685;SDS011;45554;51.096;16.976;2022-09-09T15:47:11;5.70;;;1.30;;
59685;SDS011;45554;51.096;16.976;2022-09-09T15:49:41;2.60;;;1.00;;
59685;SDS011;45554;51.096;16.976;2022-09-09T15:52:16;2.50;;;1.00;;
59685;SDS011;45554;51.096;16.976;2022-09-09T15:54:45;2.90;;;1.20;;
59685;SDS011;45554;51.096;16.976;2022-09-09T15:57:19;3.40;;;1.20;;
59685;SDS011;45554;51.096;16.976;2022-09-09T15:59:47;4.70;;;1.50;;
59685;SDS011;45554;51.096;16.976;2022-09-09T16:02:16;2.20;;;0.90;;
59685;SDS011;45554;51.096;16.976;2022-09-09T16:04:48;3.20;;;1.00;;
59685;SDS011;45554;51.096;16.976;2022-09-09T16:07:18;2.60;;;1.00;;
59685;SDS011;45554;51.096;16.976;2022-09-09T16:09:47;4.10;;;1.10;;
59685;SDS011;45554;51.096;16.976;2022-09-09T16:12:17;5.00;;;1.40;;
59685;SDS011;45554;51.096;16.976;2022-09-09T16:14:47;4.70;;;1.30;;
59685;SDS011;45554;51.096;16.976;2022-09-09T16:17:16;2.80;;;1.30;;
59685;SDS011;45554;51.096;16.976;2022-09-09T16:19:51;2.70;;;1.50;;
59685;SDS011;45554;51.096;16.976;2022-09-09T16:22:29;6.40;;;1.50;;
59685;SDS011;45554;51.096;16.976;2022-09-09T16:24:59;3.30;;;1.20;;
59685;SDS011;45554;51.096;16.976;2022-09-09T16:27:27;3.30;;;1.60;;
59685;SDS011;45554;51.096;16.976;2022-09-09T16:29:57;3.50;;;1.20;;
59685;SDS011;45554;51.096;16.976;2022-09-09T16:32:24;2.10;;;1.40;;
59685;SDS011;45554;51.096;16.976;2022-09-09T16:34:53;3.40;;;1.40;;
59685;SDS011;45554;51.096;16.976;2022-09-09T16:37:22;4.50;;;1.40;;
59685;SDS011;45554;51.096;16.976;2022-09-09T16:39:52;2.80;;;1.30;;
59685;SDS011;45554;51.096;16.976;2022-09-09T16:42:23;3.80;;;1.40;;
59685;SDS011;45554;51.096;16.976;2022-09-09T16:44:50;2.10;;;1.10;;
59685;SDS011;45554;51.096;16.976;2022-09-09T16:47:19;5.80;;;1.70;;
59685;SDS011;45554;51.096;16.976;2022-09-09T16:49:46;4.50;;;1.50;;
59685;SDS011;45554;51.096;16.976;2022-09-09T16:52:16;3.80;;;1.60;;
59685;SDS011;45554;51.096;16.976;2022-09-09T16:54:50;4.90;;;1.60;;
59685;SDS011;45554;51.096;16.976;2022-09-09T16:57:18;3.40;;;1.30;;
59685;SDS011;45554;51.096;16.976;2022-09-09T16:59:47;4.00;;;1.50;;
59685;SDS011;45554;51.096;16.976;2022-09-09T17:02:17;4.40;;;1.70;;
59685;SDS011;45554;51.096;16.976;2022-09-09T17:04:44;4.30;;;1.50;;
59685;SDS011;45554;51.096;16.976;2022-09-09T17:07:12;3.20;;;1.50;;
59685;SDS011;45554;51.096;16.976;2022-09-09T17:09:40;7.30;;;1.80;;
59685;SDS011;45554;51.096;16.976;2022-09-09T17:12:09;5.60;;;1.80;;
59685;SDS011;45554;51.096;16.976;2022-09-09T17:14:40;4.60;;;1.50;;
59685;SDS011;45554;51.096;16.976;2022-09-09T17:17:09;4.90;;;1.90;;
59685;SDS011;45554;51.096;16.976;2022-09-09T17:19:57;5.70;;;1.90;;
59685;SDS011;45554;51.096;16.976;2022-09-09T17:22:25;3.60;;;1.70;;
59685;SDS011;45554;51.096;16.976;2022-09-09T17:24:55;3.80;;;1.60;;
59685;SDS011;45554;51.096;16.976;2022-09-09T17:27:26;6.30;;;1.80;;
59685;SDS011;45554;51.096;16.976;2022-09-09T17:30:01;6.00;;;1.70;;
59685;SDS011;45554;51.096;16.976;2022-09-09T17:32:29;5.40;;;2.00;;
59685;SDS011;45554;51.096;16.976;2022-09-09T17:34:59;4.60;;;1.80;;
59685;SDS011;45554;51.096;16.976;2022-09-09T17:37:29;6.10;;;2.80;;
59685;SDS011;45554;51.096;16.976;2022-09-09T17:39:59;4.90;;;1.70;;
59685;SDS011;45554;51.096;16.976;2022-09-09T17:42:28;3.10;;;1.70;;
59685;SDS011;45554;51.096;16.976;2022-09-09T17:44:56;4.00;;;2.10;;
59685;SDS011;45554;51.096;16.976;2022-09-09T17:47:24;4.70;;;2.10;;
59685;SDS011;45554;51.096;16.976;2022-09-09T17:49:55;3.90;;;1.80;;
59685;SDS011;45554;51.096;16.976;2022-09-09T17:52:23;5.50;;;2.10;;
59685;SDS011;45554;51.096;16.976;2022-09-09T17:54:52;5.70;;;2.00;;
59685;SDS011;45554;51.096;16.976;2022-09-09T17:57:24;5.40;;;2.00;;
59685;SDS011;45554;51.096;16.976;2022-09-09T17:59:51;4.10;;;1.70;;
59685;SDS011;45554;51.096;16.976;2022-09-09T18:02:18;5.30;;;2.00;;
59685;SDS011;45554;51.096;16.976;2022-09-09T18:04:45;4.40;;;1.90;;
59685;SDS011;45554;51.096;16.976;2022-09-09T18:07:12;6.80;;;2.00;;
59685;SDS011;45554;51.096;16.976;2022-09-09T18:09:39;5.60;;;2.10;;
59685;SDS011;45554;51.096;16.976;2022-09-09T18:12:06;3.90;;;2.00;;
59685;SDS011;45554;51.096;16.976;2022-09-09T18:14:35;5.80;;;2.30;;
59685;SDS011;45554;51.096;16.976;2022-09-09T18:17:01;5.10;;;1.50;;
59685;SDS011;45554;51.096;16.976;2022-09-09T18:19:29;2.70;;;1.60;;
59685;SDS011;45554;51.096;16.976;2022-09-09T18:21:58;3.20;;;1.60;;
59685;SDS011;45554;51.096;16.976;2022-09-09T18:24:30;2.90;;;1.50;;
59685;SDS011;45554;51.096;16.976;2022-09-09T18:26:58;3.50;;;1.70;;
59685;SDS011;45554;51.096;16.976;2022-09-09T18:29:27;4.20;;;2.00;;
59685;SDS011;45554;51.096;16.976;2022-09-09T18:31:56;3.40;;;1.60;;
59685;SDS011;45554;51.096;16.976;2022-09-09T18:34:24;4.00;;;1.70;;
59685;SDS011;45554;51.096;16.976;2022-09-09T18:36:56;3.10;;;1.60;;
59685;SDS011;45554;51.096;16.976;2022-09-09T18:39:25;3.10;;;1.50;;
59685;SDS011;45554;51.096;16.976;2022-09-09T18:41:55;4.70;;;1.80;;
59685;SDS011;45554;51.096;16.976;2022-09-09T18:44:25;4.10;;;1.90;;
59685;SDS011;45554;51.096;16.976;2022-09-09T18:46:55;5.10;;;1.90;;
59685;SDS011;45554;51.096;16.976;2022-09-09T18:49:22;4.40;;;1.80;;
59685;SDS011;45554;51.096;16.976;2022-09-09T18:51:50;4.00;;;1.90;;
59685;SDS011;45554;51.096;16.976;2022-09-09T18:54:20;4.10;;;1.70;;
59685;SDS011;45554;51.096;16.976;2022-09-09T18:56:50;4.40;;;1.90;;
59685;SDS011;45554;51.096;16.976;2022-09-09T18:59:20;4.50;;;1.90;;
59685;SDS011;45554;51.096;16.976;2022-09-09T19:01:50;4.10;;;1.80;;
59685;SDS011;45554;51.096;16.976;2022-09-09T19:04:20;3.90;;;1.90;;